5B6 weather

Falmouth Airpark
Falmouth, Massachusetts, United States

Public forecast

Using degrees Fahrenheit for public forecast. Weather courtesy of forecast.io.

METAR (pilot weather report)

Closest report is Cape Cod Coast Guard Air Station, 4.5 nm (8.2 km) N. Retrieved 2019/05/24 06:35 UTC (2 minutes ago):

KFMH 240635Z AUTO 24011G16KT 6SM BR BKN005 OVC025 14/14 A2971 RMK AO2

TAF (pilot weather forecast)

Closest forecast is Cape Cod Coast Guard Air Station, 4.5 nm (8.2 km) N. Retrieved 2019/05/24 06:42 UTC (0 seconds ago):

TAF KFMH 240541Z 2406/2506 24018G27KT P6SM OVC006 WS020/25040KT FM240800 25014KT P6SM SCT020 BKN250 FM240900 25010KT P6SM SCT250 FM242000 01016G32KT P6SM BKN028 FM242200 02015G30KT P6SM SCT016 FM250500 35005KT P6SM FEW250